sensor_id;sensor_type;location;lat;lon;timestamp;pressure;altitude;pressure_sealevel;temperature;humidity
6194;BME280;3130;41.564;23.280;2023-05-24T00:02:18;98642.13;;;15.90;80.28
6194;BME280;3130;41.564;23.280;2023-05-24T00:04:45;98568.72;;;15.42;80.35
6194;BME280;3130;41.564;23.280;2023-05-24T00:07:13;98639.94;;;15.95;80.08
6194;BME280;3130;41.564;23.280;2023-05-24T00:09:41;98635.72;;;15.94;80.41
6194;BME280;3130;41.564;23.280;2023-05-24T00:12:08;98637.94;;;15.98;80.11
6194;BME280;3130;41.564;23.280;2023-05-24T00:14:36;98632.72;;;15.89;80.17
6194;BME280;3130;41.564;23.280;2023-05-24T00:17:04;98636.94;;;15.90;80.16
6194;BME280;3130;41.564;23.280;2023-05-24T00:19:30;98631.34;;;15.85;80.67
6194;BME280;3130;41.564;23.280;2023-05-24T00:21:57;98637.88;;;15.79;80.34
6194;BME280;3130;41.564;23.280;2023-05-24T00:24:24;98640.56;;;15.78;80.77
6194;BME280;3130;41.564;23.280;2023-05-24T00:26:52;98590.47;;;15.39;81.39
6194;BME280;3130;41.564;23.280;2023-05-24T00:29:19;98578.25;;;15.41;81.08
6194;BME280;3130;41.564;23.280;2023-05-24T00:31:47;98613.03;;;15.67;81.16
6194;BME280;3130;41.564;23.280;2023-05-24T00:34:14;98634.16;;;15.72;81.44
6194;BME280;3130;41.564;23.280;2023-05-24T00:36:41;98638.38;;;15.73;80.80
6194;BME280;3130;41.564;23.280;2023-05-24T00:39:08;98641.56;;;15.56;81.06
6194;BME280;3130;41.564;23.280;2023-05-24T00:41:36;98624.63;;;15.43;82.40
6194;BME280;3130;41.564;23.280;2023-05-24T00:44:03;98643.22;;;15.57;82.14
6194;BME280;3130;41.564;23.280;2023-05-24T00:46:31;98637.84;;;15.49;82.54
6194;BME280;3130;41.564;23.280;2023-05-24T00:49:00;98635.41;;;15.48;82.36
6194;BME280;3130;41.564;23.280;2023-05-24T00:51:27;98591.88;;;15.03;82.45
6194;BME280;3130;41.564;23.280;2023-05-24T00:53:55;98611.09;;;15.10;82.75
6194;BME280;3130;41.564;23.280;2023-05-24T00:56:22;98639.38;;;15.31;82.87
6194;BME280;3130;41.564;23.280;2023-05-24T00:58:50;98611.56;;;15.24;83.03
6194;BME280;3130;41.564;23.280;2023-05-24T01:01:19;98625.66;;;15.31;83.32
6194;BME280;3130;41.564;23.280;2023-05-24T01:03:46;98631.91;;;15.28;82.89
6194;BME280;3130;41.564;23.280;2023-05-24T01:06:14;98628.56;;;15.17;83.28
6194;BME280;3130;41.564;23.280;2023-05-24T01:09:01;98632.88;;;15.16;83.43
6194;BME280;3130;41.564;23.280;2023-05-24T01:11:41;98615.44;;;15.09;83.59
6194;BME280;3130;41.564;23.280;2023-05-24T01:14:17;98612.69;;;15.01;84.06
6194;BME280;3130;41.564;23.280;2023-05-24T01:16:50;98617.78;;;15.12;84.17
6194;BME280;3130;41.564;23.280;2023-05-24T01:22:39;98616.69;;;15.14;84.08
6194;BME280;3130;41.564;23.280;2023-05-24T01:25:22;98603.47;;;15.08;83.60
6194;BME280;3130;41.564;23.280;2023-05-24T01:27:55;98603.03;;;15.03;83.21
6194;BME280;3130;41.564;23.280;2023-05-24T01:30:25;98615.69;;;15.06;83.79
6194;BME280;3130;41.564;23.280;2023-05-24T01:32:52;98618.03;;;15.09;83.80
6194;BME280;3130;41.564;23.280;2023-05-24T01:35:19;98604.59;;;14.95;83.91
6194;BME280;3130;41.564;23.280;2023-05-24T01:37:46;98590.03;;;14.94;83.76
6194;BME280;3130;41.564;23.280;2023-05-24T01:40:14;98613.53;;;15.11;82.90
6194;BME280;3130;41.564;23.280;2023-05-24T01:42:45;98615.09;;;15.23;83.13
6194;BME280;3130;41.564;23.280;2023-05-24T01:45:20;98610.19;;;15.20;83.04
6194;BME280;3130;41.564;23.280;2023-05-24T01:47:59;98601.09;;;15.16;82.39
6194;BME280;3130;41.564;23.280;2023-05-24T01:50:31;98621.34;;;15.20;82.36
6194;BME280;3130;41.564;23.280;2023-05-24T01:53:05;98560.09;;;14.82;82.14
6194;BME280;3130;41.564;23.280;2023-05-24T01:55:33;98619.78;;;15.09;82.66
6194;BME280;3130;41.564;23.280;2023-05-24T01:58:04;98619.22;;;15.05;82.54
6194;BME280;3130;41.564;23.280;2023-05-24T02:00:33;98617.00;;;15.01;82.96
6194;BME280;3130;41.564;23.280;2023-05-24T02:03:00;98615.81;;;15.05;82.66
6194;BME280;3130;41.564;23.280;2023-05-24T02:05:28;98615.28;;;15.01;82.88
6194;BME280;3130;41.564;23.280;2023-05-24T02:07:55;98607.56;;;14.90;83.42
6194;BME280;3130;41.564;23.280;2023-05-24T02:10:22;98604.97;;;14.90;83.14
6194;BME280;3130;41.564;23.280;2023-05-24T02:12:49;98619.28;;;14.94;83.25
6194;BME280;3130;41.564;23.280;2023-05-24T02:15:16;98622.31;;;14.99;82.82
6194;BME280;3130;41.564;23.280;2023-05-24T02:17:44;98619.59;;;15.01;82.80
6194;BME280;3130;41.564;23.280;2023-05-24T02:20:12;98625.78;;;14.89;82.88
6194;BME280;3130;41.564;23.280;2023-05-24T02:22:41;98627.72;;;14.96;82.97
6194;BME280;3130;41.564;23.280;2023-05-24T02:25:08;98626.34;;;14.92;82.96
6194;BME280;3130;41.564;23.280;2023-05-24T02:27:35;98629.34;;;14.77;83.51
6194;BME280;3130;41.564;23.280;2023-05-24T02:30:03;98624.69;;;14.71;84.09
6194;BME280;3130;41.564;23.280;2023-05-24T02:32:30;98617.81;;;14.81;84.08
6194;BME280;3130;41.564;23.280;2023-05-24T02:35:00;98622.97;;;14.81;83.99
6194;BME280;3130;41.564;23.280;2023-05-24T02:37:27;98633.75;;;14.86;83.98
6194;BME280;3130;41.564;23.280;2023-05-24T02:39:54;98585.59;;;14.55;83.99
6194;BME280;3130;41.564;23.280;2023-05-24T02:42:21;98561.97;;;14.39;83.41
6194;BME280;3130;41.564;23.280;2023-05-24T02:44:48;98622.41;;;14.57;84.14
6194;BME280;3130;41.564;23.280;2023-05-24T02:47:17;98625.84;;;14.46;84.50
6194;BME280;3130;41.564;23.280;2023-05-24T02:49:44;98623.97;;;14.48;84.73
6194;BME280;3130;41.564;23.280;2023-05-24T02:52:13;98622.66;;;14.43;85.08
6194;BME280;3130;41.564;23.280;2023-05-24T02:54:40;98594.59;;;14.29;85.24
6194;BME280;3130;41.564;23.280;2023-05-24T02:57:07;98621.00;;;14.53;85.03
6194;BME280;3130;41.564;23.280;2023-05-24T02:59:34;98623.34;;;14.56;84.63
6194;BME280;3130;41.564;23.280;2023-05-24T03:02:01;98621.91;;;14.63;84.38
6194;BME280;3130;41.564;23.280;2023-05-24T03:04:28;98627.56;;;14.57;84.52
6194;BME280;3130;41.564;23.280;2023-05-24T03:06:55;98627.34;;;14.49;84.90
6194;BME280;3130;41.564;23.280;2023-05-24T03:09:24;98552.47;;;13.97;84.63
6194;BME280;3130;41.564;23.280;2023-05-24T03:11:52;98628.13;;;14.29;85.73
6194;BME280;3130;41.564;23.280;2023-05-24T03:14:19;98626.88;;;14.44;84.93
6194;BME280;3130;41.564;23.280;2023-05-24T03:16:47;98631.34;;;14.42;85.09
6194;BME280;3130;41.564;23.280;2023-05-24T03:19:14;98615.53;;;14.35;84.57
6194;BME280;3130;41.564;23.280;2023-05-24T03:21:42;98630.31;;;14.33;84.83
6194;BME280;3130;41.564;23.280;2023-05-24T03:24:09;98628.22;;;14.38;85.01
6194;BME280;3130;41.564;23.280;2023-05-24T03:26:39;98634.31;;;14.37;85.19
6194;BME280;3130;41.564;23.280;2023-05-24T03:29:06;98637.72;;;14.38;85.41
6194;BME280;3130;41.564;23.280;2023-05-24T03:31:33;98636.50;;;14.42;84.97
6194;BME280;3130;41.564;23.280;2023-05-24T03:34:00;98635.56;;;14.43;84.92
6194;BME280;3130;41.564;23.280;2023-05-24T03:36:27;98634.31;;;14.37;84.84
6194;BME280;3130;41.564;23.280;2023-05-24T03:38:54;98636.66;;;14.40;85.16
6194;BME280;3130;41.564;23.280;2023-05-24T03:41:23;98637.81;;;14.47;84.93
6194;BME280;3130;41.564;23.280;2023-05-24T03:43:52;98645.78;;;14.44;84.63
6194;BME280;3130;41.564;23.280;2023-05-24T03:46:19;98650.63;;;14.38;84.88
6194;BME280;3130;41.564;23.280;2023-05-24T03:48:46;98646.72;;;14.43;84.94
6194;BME280;3130;41.564;23.280;2023-05-24T03:51:13;98649.50;;;14.51;84.38
6194;BME280;3130;41.564;23.280;2023-05-24T03:53:40;98649.59;;;14.61;83.94
6194;BME280;3130;41.564;23.280;2023-05-24T03:56:08;98597.88;;;14.31;83.51
6194;BME280;3130;41.564;23.280;2023-05-24T03:58:35;98642.69;;;14.61;84.01
6194;BME280;3130;41.564;23.280;2023-05-24T04:01:03;98653.09;;;14.60;84.40
6194;BME280;3130;41.564;23.280;2023-05-24T04:03:31;98628.91;;;14.40;84.29
6194;BME280;3130;41.564;23.280;2023-05-24T04:05:58;98619.75;;;14.36;84.60
6194;BME280;3130;41.564;23.280;2023-05-24T04:08:25;98654.41;;;14.54;85.22
6194;BME280;3130;41.564;23.280;2023-05-24T04:10:52;98637.66;;;14.49;84.89
6194;BME280;3130;41.564;23.280;2023-05-24T04:13:20;98659.44;;;14.67;84.77
6194;BME280;3130;41.564;23.280;2023-05-24T04:15:47;98663.44;;;14.60;85.03
6194;BME280;3130;41.564;23.280;2023-05-24T04:18:15;98665.28;;;14.69;85.29
6194;BME280;3130;41.564;23.280;2023-05-24T04:20:42;98671.94;;;14.71;84.60
6194;BME280;3130;41.564;23.280;2023-05-24T04:23:09;98664.09;;;14.73;84.80
6194;BME280;3130;41.564;23.280;2023-05-24T04:25:36;98661.94;;;14.78;84.75
6194;BME280;3130;41.564;23.280;2023-05-24T04:28:03;98655.59;;;14.82;84.84
6194;BME280;3130;41.564;23.280;2023-05-24T04:30:30;98668.72;;;15.10;84.66
6194;BME280;3130;41.564;23.280;2023-05-24T04:32:57;98670.38;;;15.11;84.84
6194;BME280;3130;41.564;23.280;2023-05-24T04:35:26;98615.56;;;14.87;84.63
6194;BME280;3130;41.564;23.280;2023-05-24T04:37:54;98671.28;;;15.41;84.12
6194;BME280;3130;41.564;23.280;2023-05-24T04:40:22;98665.63;;;15.57;83.84
6194;BME280;3130;41.564;23.280;2023-05-24T04:42:49;98674.44;;;15.75;83.03
6194;BME280;3130;41.564;23.280;2023-05-24T04:45:16;98670.78;;;15.77;82.96
6194;BME280;3130;41.564;23.280;2023-05-24T04:47:43;98674.91;;;15.89;82.73
6194;BME280;3130;41.564;23.280;2023-05-24T04:50:10;98683.25;;;16.02;82.37
6194;BME280;3130;41.564;23.280;2023-05-24T04:52:38;98682.31;;;16.03;82.36
6194;BME280;3130;41.564;23.280;2023-05-24T04:55:06;98688.09;;;16.25;81.85
6194;BME280;3130;41.564;23.280;2023-05-24T04:57:33;98686.19;;;16.27;81.40
6194;BME280;3130;41.564;23.280;2023-05-24T05:00:00;98666.78;;;16.42;79.79
6194;BME280;3130;41.564;23.280;2023-05-24T05:02:29;98676.06;;;16.54;79.42
6194;BME280;3130;41.564;23.280;2023-05-24T05:04:56;98679.88;;;16.60;79.59
6194;BME280;3130;41.564;23.280;2023-05-24T05:07:23;98684.28;;;16.69;79.43
6194;BME280;3130;41.564;23.280;2023-05-24T05:09:51;98675.53;;;16.79;78.85
6194;BME280;3130;41.564;23.280;2023-05-24T05:12:18;98672.53;;;16.74;78.75
6194;BME280;3130;41.564;23.280;2023-05-24T05:14:45;98680.69;;;16.79;78.55
6194;BME280;3130;41.564;23.280;2023-05-24T05:17:12;98674.19;;;16.94;78.02
6194;BME280;3130;41.564;23.280;2023-05-24T05:19:39;98680.31;;;17.03;78.27
6194;BME280;3130;41.564;23.280;2023-05-24T05:22:06;98690.09;;;17.09;78.61
6194;BME280;3130;41.564;23.280;2023-05-24T05:24:33;98680.69;;;17.17;78.88
6194;BME280;3130;41.564;23.280;2023-05-24T05:27:02;98682.47;;;17.17;79.05
6194;BME280;3130;41.564;23.280;2023-05-24T05:29:29;98659.03;;;16.99;79.43
6194;BME280;3130;41.564;23.280;2023-05-24T05:31:56;98683.28;;;17.17;79.05
6194;BME280;3130;41.564;23.280;2023-05-24T05:34:23;98685.88;;;17.17;79.00
6194;BME280;3130;41.564;23.280;2023-05-24T05:36:50;98685.19;;;17.43;78.01
6194;BME280;3130;41.564;23.280;2023-05-24T05:39:17;98669.22;;;17.48;77.36
6194;BME280;3130;41.564;23.280;2023-05-24T05:41:44;98688.97;;;17.58;77.66
6194;BME280;3130;41.564;23.280;2023-05-24T05:44:13;98693.00;;;17.80;77.38
6194;BME280;3130;41.564;23.280;2023-05-24T05:46:40;98697.34;;;17.89;76.16
6194;BME280;3130;41.564;23.280;2023-05-24T05:49:10;98702.09;;;17.93;74.19
6194;BME280;3130;41.564;23.280;2023-05-24T05:51:37;98693.91;;;17.98;74.20
6194;BME280;3130;41.564;23.280;2023-05-24T05:54:04;98698.34;;;18.15;74.07
6194;BME280;3130;41.564;23.280;2023-05-24T05:56:33;98681.47;;;18.28;72.89
6194;BME280;3130;41.564;23.280;2023-05-24T05:59:05;98670.75;;;18.40;73.41
6194;BME280;3130;41.564;23.280;2023-05-24T06:01:34;98693.53;;;18.64;73.63
6194;BME280;3130;41.564;23.280;2023-05-24T06:04:01;98693.06;;;18.78;73.20
6194;BME280;3130;41.564;23.280;2023-05-24T06:06:28;98696.84;;;18.83;70.90
6194;BME280;3130;41.564;23.280;2023-05-24T06:08:55;98702.84;;;18.84;70.03
6194;BME280;3130;41.564;23.280;2023-05-24T06:11:22;98695.50;;;18.97;69.77
6194;BME280;3130;41.564;23.280;2023-05-24T06:13:49;98670.16;;;18.99;70.33
6194;BME280;3130;41.564;23.280;2023-05-24T06:16:16;98697.53;;;19.20;69.59
6194;BME280;3130;41.564;23.280;2023-05-24T06:18:44;98697.22;;;19.23;68.81
6194;BME280;3130;41.564;23.280;2023-05-24T06:21:12;98694.13;;;19.45;68.75
6194;BME280;3130;41.564;23.280;2023-05-24T06:23:39;98689.03;;;19.61;68.26
6194;BME280;3130;41.564;23.280;2023-05-24T06:26:06;98708.63;;;19.73;65.82
6194;BME280;3130;41.564;23.280;2023-05-24T06:28:34;98572.53;;;19.14;65.21
6194;BME280;3130;41.564;23.280;2023-05-24T06:31:01;98710.97;;;20.09;65.23
6194;BME280;3130;41.564;23.280;2023-05-24T06:33:28;98699.63;;;20.26;64.88
6194;BME280;3130;41.564;23.280;2023-05-24T06:35:58;98697.28;;;20.56;64.24
6194;BME280;3130;41.564;23.280;2023-05-24T06:38:25;98694.88;;;20.63;63.03
6194;BME280;3130;41.564;23.280;2023-05-24T06:40:52;98687.09;;;20.79;62.92
6194;BME280;3130;41.564;23.280;2023-05-24T06:43:19;98679.09;;;20.72;61.32
6194;BME280;3130;41.564;23.280;2023-05-24T06:45:47;98676.38;;;20.82;61.48
6194;BME280;3130;41.564;23.280;2023-05-24T06:48:14;98664.09;;;20.74;61.13
6194;BME280;3130;41.564;23.280;2023-05-24T06:50:41;98694.81;;;20.96;61.11
6194;BME280;3130;41.564;23.280;2023-05-24T06:53:11;98685.34;;;21.11;60.46
6194;BME280;3130;41.564;23.280;2023-05-24T06:55:38;98647.88;;;21.12;60.26
6194;BME280;3130;41.564;23.280;2023-05-24T06:58:05;98683.88;;;21.40;59.26
6194;BME280;3130;41.564;23.280;2023-05-24T07:00:32;98685.50;;;21.41;59.68
6194;BME280;3130;41.564;23.280;2023-05-24T07:02:59;98680.75;;;21.53;58.85
6194;BME280;3130;41.564;23.280;2023-05-24T07:05:26;98688.41;;;21.70;58.87
6194;BME280;3130;41.564;23.280;2023-05-24T07:07:53;98542.94;;;20.94;58.52
6194;BME280;3130;41.564;23.280;2023-05-24T07:10:22;98583.94;;;21.24;58.32
6194;BME280;3130;41.564;23.280;2023-05-24T07:12:49;98683.47;;;21.91;58.31
6194;BME280;3130;41.564;23.280;2023-05-24T07:15:16;98676.41;;;22.00;59.34
6194;BME280;3130;41.564;23.280;2023-05-24T07:17:43;98671.50;;;22.05;57.03
6194;BME280;3130;41.564;23.280;2023-05-24T07:20:10;98673.09;;;22.14;57.55
6194;BME280;3130;41.564;23.280;2023-05-24T07:22:38;98669.75;;;22.28;57.39
6194;BME280;3130;41.564;23.280;2023-05-24T07:25:05;98659.31;;;22.36;56.55
6194;BME280;3130;41.564;23.280;2023-05-24T07:27:35;98668.59;;;22.68;56.50
6194;BME280;3130;41.564;23.280;2023-05-24T07:30:02;98676.38;;;22.76;57.80
6194;BME280;3130;41.564;23.280;2023-05-24T07:32:29;98679.34;;;22.96;56.17
6194;BME280;3130;41.564;23.280;2023-05-24T07:34:58;98673.81;;;22.91;55.51
6194;BME280;3130;41.564;23.280;2023-05-24T07:37:25;98673.19;;;23.11;56.03
6194;BME280;3130;41.564;23.280;2023-05-24T07:39:52;98672.56;;;23.32;55.56
6194;BME280;3130;41.564;23.280;2023-05-24T07:42:19;98673.13;;;23.56;54.67
6194;BME280;3130;41.564;23.280;2023-05-24T07:44:48;98641.84;;;23.26;55.74
6194;BME280;3130;41.564;23.280;2023-05-24T07:47:15;98650.13;;;22.92;56.20
6194;BME280;3130;41.564;23.280;2023-05-24T07:49:42;98667.34;;;23.09;56.99
6194;BME280;3130;41.564;23.280;2023-05-24T07:52:09;98661.34;;;23.23;55.69
6194;BME280;3130;41.564;23.280;2023-05-24T07:54:36;98657.22;;;23.43;55.70
6194;BME280;3130;41.564;23.280;2023-05-24T07:57:04;98662.56;;;23.64;54.06
6194;BME280;3130;41.564;23.280;2023-05-24T07:59:32;98643.28;;;23.79;52.33
6194;BME280;3130;41.564;23.280;2023-05-24T08:02:01;98653.84;;;24.00;52.70
6194;BME280;3130;41.564;23.280;2023-05-24T08:04:30;98659.63;;;23.96;51.85
6194;BME280;3130;41.564;23.280;2023-05-24T08:06:58;98634.50;;;24.16;51.67
6194;BME280;3130;41.564;23.280;2023-05-24T08:09:26;98655.13;;;24.54;50.22
6194;BME280;3130;41.564;23.280;2023-05-24T08:11:54;98649.09;;;24.74;49.22
6194;BME280;3130;41.564;23.280;2023-05-24T08:14:22;98656.06;;;24.88;48.00
6194;BME280;3130;41.564;23.280;2023-05-24T08:16:49;98653.38;;;24.82;49.37
6194;BME280;3130;41.564;23.280;2023-05-24T08:19:17;98639.16;;;24.91;49.46
6194;BME280;3130;41.564;23.280;2023-05-24T08:21:45;98643.16;;;25.08;49.17
6194;BME280;3130;41.564;23.280;2023-05-24T08:24:12;98616.16;;;24.93;48.97
6194;BME280;3130;41.564;23.280;2023-05-24T08:26:39;98626.09;;;24.97;48.75
6194;BME280;3130;41.564;23.280;2023-05-24T08:29:08;98643.53;;;25.26;48.94
6194;BME280;3130;41.564;23.280;2023-05-24T08:31:35;98624.94;;;25.27;49.17
6194;BME280;3130;41.564;23.280;2023-05-24T08:34:02;98646.16;;;25.26;48.85
6194;BME280;3130;41.564;23.280;2023-05-24T08:36:31;98651.72;;;25.16;47.65
6194;BME280;3130;41.564;23.280;2023-05-24T08:38:58;98645.63;;;25.37;47.32
6194;BME280;3130;41.564;23.280;2023-05-24T08:41:25;98647.66;;;25.68;46.58
6194;BME280;3130;41.564;23.280;2023-05-24T08:43:56;98640.31;;;25.30;47.34
6194;BME280;3130;41.564;23.280;2023-05-24T08:46:43;98650.44;;;25.60;47.94
6194;BME280;3130;41.564;23.280;2023-05-24T08:49:11;98648.50;;;25.75;45.72
6194;BME280;3130;41.564;23.280;2023-05-24T08:51:42;98651.28;;;25.67;45.22
6194;BME280;3130;41.564;23.280;2023-05-24T08:54:10;98649.31;;;25.76;44.78
6194;BME280;3130;41.564;23.280;2023-05-24T08:56:39;98651.47;;;25.93;42.87
6194;BME280;3130;41.564;23.280;2023-05-24T08:59:07;98648.50;;;26.09;44.26
6194;BME280;3130;41.564;23.280;2023-05-24T09:01:37;98643.75;;;26.32;44.65
6194;BME280;3130;41.564;23.280;2023-05-24T09:04:06;98657.97;;;25.97;43.78
6194;BME280;3130;41.564;23.280;2023-05-24T09:06:34;98643.19;;;25.62;44.55
6194;BME280;3130;41.564;23.280;2023-05-24T09:09:03;98617.03;;;25.48;45.32
6194;BME280;3130;41.564;23.280;2023-05-24T09:11:32;98641.06;;;25.79;44.55
6194;BME280;3130;41.564;23.280;2023-05-24T09:14:01;98573.31;;;25.34;44.26
6194;BME280;3130;41.564;23.280;2023-05-24T09:16:28;98653.38;;;26.12;44.04
6194;BME280;3130;41.564;23.280;2023-05-24T09:18:55;98655.09;;;26.33;43.63
6194;BME280;3130;41.564;23.280;2023-05-24T09:21:23;98659.00;;;26.50;43.37
6194;BME280;3130;41.564;23.280;2023-05-24T09:23:51;98621.13;;;26.38;42.35
6194;BME280;3130;41.564;23.280;2023-05-24T09:26:20;98640.44;;;26.64;42.25
6194;BME280;3130;41.564;23.280;2023-05-24T09:28:49;98641.66;;;26.68;42.21
6194;BME280;3130;41.564;23.280;2023-05-24T09:31:31;98630.69;;;26.58;41.80
6194;BME280;3130;41.564;23.280;2023-05-24T09:33:58;98647.97;;;26.27;41.68
6194;BME280;3130;41.564;23.280;2023-05-24T09:36:26;98533.06;;;25.74;41.61
6194;BME280;3130;41.564;23.280;2023-05-24T09:39:05;98636.50;;;26.41;40.73
6194;BME280;3130;41.564;23.280;2023-05-24T09:41:35;98640.81;;;26.55;40.47
6194;BME280;3130;41.564;23.280;2023-05-24T09:44:03;98585.59;;;26.01;41.24
6194;BME280;3130;41.564;23.280;2023-05-24T09:46:34;98597.19;;;26.20;42.20
6194;BME280;3130;41.564;23.280;2023-05-24T09:49:03;98471.59;;;25.55;41.14
6194;BME280;3130;41.564;23.280;2023-05-24T09:51:31;98556.28;;;26.11;40.59
6194;BME280;3130;41.564;23.280;2023-05-24T09:54:00;98628.03;;;26.45;41.38
6194;BME280;3130;41.564;23.280;2023-05-24T09:56:28;98601.53;;;26.47;41.21
6194;BME280;3130;41.564;23.280;2023-05-24T09:58:57;98613.91;;;26.65;40.48
6194;BME280;3130;41.564;23.280;2023-05-24T10:01:24;98622.25;;;26.88;39.96
6194;BME280;3130;41.564;23.280;2023-05-24T10:03:53;98632.78;;;27.01;38.84
6194;BME280;3130;41.564;23.280;2023-05-24T10:06:20;98607.72;;;27.05;39.36
6194;BME280;3130;41.564;23.280;2023-05-24T10:08:49;98621.47;;;27.07;38.91
6194;BME280;3130;41.564;23.280;2023-05-24T10:11:17;98515.16;;;26.44;39.22
6194;BME280;3130;41.564;23.280;2023-05-24T10:13:45;98596.94;;;26.87;38.78
6194;BME280;3130;41.564;23.280;2023-05-24T10:16:14;98617.63;;;27.10;38.25
6194;BME280;3130;41.564;23.280;2023-05-24T10:18:41;98620.84;;;26.99;37.97
6194;BME280;3130;41.564;23.280;2023-05-24T10:21:09;98605.22;;;26.84;37.42
6194;BME280;3130;41.564;23.280;2023-05-24T10:23:38;98528.06;;;26.39;37.64
6194;BME280;3130;41.564;23.280;2023-05-24T10:26:06;98611.72;;;27.01;37.09
6194;BME280;3130;41.564;23.280;2023-05-24T10:28:39;98614.19;;;27.09;37.59
6194;BME280;3130;41.564;23.280;2023-05-24T10:31:10;98587.41;;;26.61;37.96
6194;BME280;3130;41.564;23.280;2023-05-24T10:33:43;98606.25;;;26.77;38.38
6194;BME280;3130;41.564;23.280;2023-05-24T10:36:12;98598.97;;;26.85;38.02
6194;BME280;3130;41.564;23.280;2023-05-24T10:38:40;98595.13;;;26.94;37.04
6194;BME280;3130;41.564;23.280;2023-05-24T10:41:08;98583.16;;;26.72;36.91
6194;BME280;3130;41.564;23.280;2023-05-24T10:43:36;98559.88;;;26.89;36.57
6194;BME280;3130;41.564;23.280;2023-05-24T10:46:04;98585.22;;;27.09;37.00
6194;BME280;3130;41.564;23.280;2023-05-24T10:48:34;98566.75;;;26.83;35.49
6194;BME280;3130;41.564;23.280;2023-05-24T10:51:31;98579.34;;;27.01;34.75
6194;BME280;3130;41.564;23.280;2023-05-24T10:54:14;98583.97;;;26.73;33.90
6194;BME280;3130;41.564;23.280;2023-05-24T10:56:46;98584.19;;;26.65;34.81
6194;BME280;3130;41.564;23.280;2023-05-24T10:59:28;98589.03;;;26.74;33.91
6194;BME280;3130;41.564;23.280;2023-05-24T11:01:56;98573.47;;;26.86;34.11
6194;BME280;3130;41.564;23.280;2023-05-24T11:04:23;98580.38;;;27.06;33.11
6194;BME280;3130;41.564;23.280;2023-05-24T11:07:00;98551.41;;;26.93;32.31
6194;BME280;3130;41.564;23.280;2023-05-24T11:09:28;98581.38;;;27.12;32.57
6194;BME280;3130;41.564;23.280;2023-05-24T11:12:00;98502.78;;;26.51;33.01
6194;BME280;3130;41.564;23.280;2023-05-24T11:14:29;98577.28;;;26.83;33.08
6194;BME280;3130;41.564;23.280;2023-05-24T11:16:57;98468.56;;;26.25;33.89
6194;BME280;3130;41.564;23.280;2023-05-24T11:19:31;98571.22;;;27.15;37.89
6194;BME280;3130;41.564;23.280;2023-05-24T11:22:05;98576.72;;;27.07;35.76
6194;BME280;3130;41.564;23.280;2023-05-24T11:24:33;98558.66;;;26.98;36.32
6194;BME280;3130;41.564;23.280;2023-05-24T11:27:01;98571.22;;;27.02;34.66
6194;BME280;3130;41.564;23.280;2023-05-24T11:29:29;98564.56;;;26.93;34.70
6194;BME280;3130;41.564;23.280;2023-05-24T11:31:57;98569.81;;;27.00;33.68
6194;BME280;3130;41.564;23.280;2023-05-24T11:34:28;98513.13;;;26.52;30.01
6194;BME280;3130;41.564;23.280;2023-05-24T11:36:57;98558.25;;;26.68;28.45
6194;BME280;3130;41.564;23.280;2023-05-24T11:39:29;98485.81;;;26.60;31.05
6194;BME280;3130;41.564;23.280;2023-05-24T11:41:57;98545.75;;;27.09;28.21
6194;BME280;3130;41.564;23.280;2023-05-24T11:44:26;98563.75;;;27.25;27.66
6194;BME280;3130;41.564;23.280;2023-05-24T11:46:57;98555.75;;;27.51;26.56
6194;BME280;3130;41.564;23.280;2023-05-24T11:49:25;98555.19;;;27.49;27.11
6194;BME280;3130;41.564;23.280;2023-05-24T11:51:53;98556.78;;;27.69;27.83
6194;BME280;3130;41.564;23.280;2023-05-24T11:54:21;98544.56;;;27.81;28.48
6194;BME280;3130;41.564;23.280;2023-05-24T11:56:51;98554.31;;;27.81;24.27
6194;BME280;3130;41.564;23.280;2023-05-24T11:59:22;98475.50;;;27.54;24.28
6194;BME280;3130;41.564;23.280;2023-05-24T12:01:56;98490.00;;;27.82;26.29
6194;BME280;3130;41.564;23.280;2023-05-24T12:04:23;98457.50;;;27.44;26.39
6194;BME280;3130;41.564;23.280;2023-05-24T12:06:50;98539.31;;;28.25;28.07
6194;BME280;3130;41.564;23.280;2023-05-24T12:09:17;98387.59;;;27.42;29.85
6194;BME280;3130;41.564;23.280;2023-05-24T12:11:46;98531.28;;;28.38;29.58
6194;BME280;3130;41.564;23.280;2023-05-24T12:14:17;98516.00;;;28.16;28.90
6194;BME280;3130;41.564;23.280;2023-05-24T12:16:45;98532.94;;;27.89;29.38
6194;BME280;3130;41.564;23.280;2023-05-24T12:19:16;98529.06;;;27.98;30.97
6194;BME280;3130;41.564;23.280;2023-05-24T12:21:44;98527.25;;;27.92;31.58
6194;BME280;3130;41.564;23.280;2023-05-24T12:24:13;98513.91;;;27.93;30.39
6194;BME280;3130;41.564;23.280;2023-05-24T12:26:41;98521.84;;;27.80;30.54
6194;BME280;3130;41.564;23.280;2023-05-24T12:29:09;98519.50;;;27.66;30.36
6194;BME280;3130;41.564;23.280;2023-05-24T12:31:40;98508.72;;;27.61;30.66
6194;BME280;3130;41.564;23.280;2023-05-24T12:34:10;98510.50;;;27.80;31.90
6194;BME280;3130;41.564;23.280;2023-05-24T12:36:38;98434.66;;;27.32;31.52
6194;BME280;3130;41.564;23.280;2023-05-24T12:39:17;98518.44;;;27.73;28.86
6194;BME280;3130;41.564;23.280;2023-05-24T12:41:44;98507.19;;;27.91;29.33
6194;BME280;3130;41.564;23.280;2023-05-24T12:44:15;98516.66;;;28.05;29.46
6194;BME280;3130;41.564;23.280;2023-05-24T12:46:45;98394.63;;;27.10;29.54
6194;BME280;3130;41.564;23.280;2023-05-24T12:49:12;98520.06;;;27.74;29.73
6194;BME280;3130;41.564;23.280;2023-05-24T12:51:39;98522.06;;;27.79;29.87
6194;BME280;3130;41.564;23.280;2023-05-24T12:54:06;98506.25;;;27.79;29.67
6194;BME280;3130;41.564;23.280;2023-05-24T12:56:33;98507.97;;;27.98;31.12
6194;BME280;3130;41.564;23.280;2023-05-24T12:59:00;98516.19;;;28.14;30.08
6194;BME280;3130;41.564;23.280;2023-05-24T13:01:28;98481.56;;;28.04;29.96
6194;BME280;3130;41.564;23.280;2023-05-24T13:03:57;98501.59;;;28.12;29.49
6194;BME280;3130;41.564;23.280;2023-05-24T13:06:24;98521.38;;;28.34;29.99
6194;BME280;3130;41.564;23.280;2023-05-24T13:08:51;98464.91;;;28.10;28.59
6194;BME280;3130;41.564;23.280;2023-05-24T13:11:19;98450.66;;;28.11;30.88
6194;BME280;3130;41.564;23.280;2023-05-24T13:13:47;98507.22;;;28.28;30.62
6194;BME280;3130;41.564;23.280;2023-05-24T13:16:14;98457.13;;;28.15;31.62
6194;BME280;3130;41.564;23.280;2023-05-24T13:18:42;98505.56;;;28.58;31.78
6194;BME280;3130;41.564;23.280;2023-05-24T13:21:12;98507.03;;;28.54;31.10